sensor_id;sensor_type;location;lat;lon;timestamp;temperature;humidity
9907;DHT22;4992;51.628;6.664;2023-03-14T00:01:19;11.20;99.90
9907;DHT22;4992;51.628;6.664;2023-03-14T00:03:49;11.20;99.90
9907;DHT22;4992;51.628;6.664;2023-03-14T00:06:15;11.20;99.90
9907;DHT22;4992;51.628;6.664;2023-03-14T00:08:42;11.20;99.90
9907;DHT22;4992;51.628;6.664;2023-03-14T00:11:14;11.20;99.90
9907;DHT22;4992;51.628;6.664;2023-03-14T00:13:41;11.30;99.90
9907;DHT22;4992;51.628;6.664;2023-03-14T00:16:13;11.30;99.90
9907;DHT22;4992;51.628;6.664;2023-03-14T00:18:39;11.30;99.90
9907;DHT22;4992;51.628;6.664;2023-03-14T00:21:06;11.40;99.90
9907;DHT22;4992;51.628;6.664;2023-03-14T00:23:34;11.30;99.90
9907;DHT22;4992;51.628;6.664;2023-03-14T00:26:01;11.40;99.90
9907;DHT22;4992;51.628;6.664;2023-03-14T00:28:28;11.40;99.90
9907;DHT22;4992;51.628;6.664;2023-03-14T00:30:53;11.40;99.90
9907;DHT22;4992;51.628;6.664;2023-03-14T00:33:20;11.40;99.90
9907;DHT22;4992;51.628;6.664;2023-03-14T00:35:56;11.50;99.90
9907;DHT22;4992;51.628;6.664;2023-03-14T00:38:24;11.50;99.90
9907;DHT22;4992;51.628;6.664;2023-03-14T00:40:51;11.50;99.90
9907;DHT22;4992;51.628;6.664;2023-03-14T00:43:17;11.50;99.90
9907;DHT22;4992;51.628;6.664;2023-03-14T00:45:43;11.60;99.90
9907;DHT22;4992;51.628;6.664;2023-03-14T00:48:08;11.50;99.90
9907;DHT22;4992;51.628;6.664;2023-03-14T00:50:34;11.50;99.90
9907;DHT22;4992;51.628;6.664;2023-03-14T00:52:59;11.50;99.90
9907;DHT22;4992;51.628;6.664;2023-03-14T00:55:25;11.50;99.90
9907;DHT22;4992;51.628;6.664;2023-03-14T00:57:51;11.50;99.90
9907;DHT22;4992;51.628;6.664;2023-03-14T01:00:17;11.40;99.90
9907;DHT22;4992;51.628;6.664;2023-03-14T01:02:43;11.40;99.90
9907;DHT22;4992;51.628;6.664;2023-03-14T01:05:09;11.30;99.90
9907;DHT22;4992;51.628;6.664;2023-03-14T01:07:36;11.30;99.90
9907;DHT22;4992;51.628;6.664;2023-03-14T01:10:02;11.30;99.90
9907;DHT22;4992;51.628;6.664;2023-03-14T01:12:28;11.20;99.90
9907;DHT22;4992;51.628;6.664;2023-03-14T01:14:54;11.20;99.90
9907;DHT22;4992;51.628;6.664;2023-03-14T01:17:19;11.20;99.90
9907;DHT22;4992;51.628;6.664;2023-03-14T01:19:45;11.10;99.90
9907;DHT22;4992;51.628;6.664;2023-03-14T01:22:10;11.10;99.90
9907;DHT22;4992;51.628;6.664;2023-03-14T01:24:37;11.10;99.90
9907;DHT22;4992;51.628;6.664;2023-03-14T01:27:02;11.10;99.90
9907;DHT22;4992;51.628;6.664;2023-03-14T01:29:28;11.00;99.90
9907;DHT22;4992;51.628;6.664;2023-03-14T01:31:53;11.00;99.90
9907;DHT22;4992;51.628;6.664;2023-03-14T01:34:19;11.00;99.90
9907;DHT22;4992;51.628;6.664;2023-03-14T01:36:45;10.90;99.90
9907;DHT22;4992;51.628;6.664;2023-03-14T01:39:10;11.00;99.90
9907;DHT22;4992;51.628;6.664;2023-03-14T01:41:36;11.00;99.90
9907;DHT22;4992;51.628;6.664;2023-03-14T01:44:02;11.00;99.90
9907;DHT22;4992;51.628;6.664;2023-03-14T01:46:34;10.90;99.90
9907;DHT22;4992;51.628;6.664;2023-03-14T01:57:20;10.80;99.90
9907;DHT22;4992;51.628;6.664;2023-03-14T02:00:03;10.80;99.90
9907;DHT22;4992;51.628;6.664;2023-03-14T02:02:31;10.70;99.90
9907;DHT22;4992;51.628;6.664;2023-03-14T02:04:59;10.70;99.90
9907;DHT22;4992;51.628;6.664;2023-03-14T02:07:35;10.60;99.90
9907;DHT22;4992;51.628;6.664;2023-03-14T02:10:03;10.60;99.90
9907;DHT22;4992;51.628;6.664;2023-03-14T02:12:29;10.50;99.90
9907;DHT22;4992;51.628;6.664;2023-03-14T02:14:55;10.50;99.90
9907;DHT22;4992;51.628;6.664;2023-03-14T02:17:22;10.50;99.90
9907;DHT22;4992;51.628;6.664;2023-03-14T02:20:34;10.40;99.90
9907;DHT22;4992;51.628;6.664;2023-03-14T02:23:02;10.40;99.90
9907;DHT22;4992;51.628;6.664;2023-03-14T02:25:49;10.30;99.90
9907;DHT22;4992;51.628;6.664;2023-03-14T02:28:16;10.30;99.90
9907;DHT22;4992;51.628;6.664;2023-03-14T02:30:43;10.30;99.90
9907;DHT22;4992;51.628;6.664;2023-03-14T02:33:17;10.20;99.90
9907;DHT22;4992;51.628;6.664;2023-03-14T02:40:46;10.20;99.90
9907;DHT22;4992;51.628;6.664;2023-03-14T02:43:12;10.20;99.90
9907;DHT22;4992;51.628;6.664;2023-03-14T02:45:41;10.10;99.90
9907;DHT22;4992;51.628;6.664;2023-03-14T02:50:59;10.10;99.90
9907;DHT22;4992;51.628;6.664;2023-03-14T02:53:28;10.10;99.90
9907;DHT22;4992;51.628;6.664;2023-03-14T02:55:55;10.10;99.90
9907;DHT22;4992;51.628;6.664;2023-03-14T02:58:20;10.10;99.90
9907;DHT22;4992;51.628;6.664;2023-03-14T03:00:46;10.10;99.90
9907;DHT22;4992;51.628;6.664;2023-03-14T03:03:12;10.10;99.90
9907;DHT22;4992;51.628;6.664;2023-03-14T03:05:38;10.10;99.90
9907;DHT22;4992;51.628;6.664;2023-03-14T03:08:04;10.10;99.90
9907;DHT22;4992;51.628;6.664;2023-03-14T03:10:30;10.10;99.90
9907;DHT22;4992;51.628;6.664;2023-03-14T03:12:56;10.10;99.90
9907;DHT22;4992;51.628;6.664;2023-03-14T03:15:22;10.10;99.90
9907;DHT22;4992;51.628;6.664;2023-03-14T03:17:48;10.10;99.90
9907;DHT22;4992;51.628;6.664;2023-03-14T03:20:13;10.10;99.90
9907;DHT22;4992;51.628;6.664;2023-03-14T03:22:39;10.10;99.90
9907;DHT22;4992;51.628;6.664;2023-03-14T03:25:06;10.10;99.90
9907;DHT22;4992;51.628;6.664;2023-03-14T03:27:34;10.10;99.90
9907;DHT22;4992;51.628;6.664;2023-03-14T03:30:01;10.10;99.90
9907;DHT22;4992;51.628;6.664;2023-03-14T03:32:27;10.10;99.90
9907;DHT22;4992;51.628;6.664;2023-03-14T03:34:53;10.20;99.90
9907;DHT22;4992;51.628;6.664;2023-03-14T03:37:19;10.10;99.90
9907;DHT22;4992;51.628;6.664;2023-03-14T03:39:44;10.10;99.90
9907;DHT22;4992;51.628;6.664;2023-03-14T03:42:10;10.20;99.90
9907;DHT22;4992;51.628;6.664;2023-03-14T03:44:36;10.10;99.90
9907;DHT22;4992;51.628;6.664;2023-03-14T03:47:02;10.10;99.90
9907;DHT22;4992;51.628;6.664;2023-03-14T03:49:31;10.10;99.90
9907;DHT22;4992;51.628;6.664;2023-03-14T03:51:58;10.10;99.90
9907;DHT22;4992;51.628;6.664;2023-03-14T03:54:23;10.10;99.90
9907;DHT22;4992;51.628;6.664;2023-03-14T03:56:49;10.10;99.90
9907;DHT22;4992;51.628;6.664;2023-03-14T03:59:14;10.20;99.90
9907;DHT22;4992;51.628;6.664;2023-03-14T04:01:40;10.20;99.90
9907;DHT22;4992;51.628;6.664;2023-03-14T04:04:06;10.20;99.90
9907;DHT22;4992;51.628;6.664;2023-03-14T04:06:31;10.30;99.90
9907;DHT22;4992;51.628;6.664;2023-03-14T04:08:57;10.20;99.90
9907;DHT22;4992;51.628;6.664;2023-03-14T04:11:23;10.20;99.90
9907;DHT22;4992;51.628;6.664;2023-03-14T04:13:48;10.20;99.90
9907;DHT22;4992;51.628;6.664;2023-03-14T04:16:17;10.20;99.90
9907;DHT22;4992;51.628;6.664;2023-03-14T04:18:43;10.20;99.90
9907;DHT22;4992;51.628;6.664;2023-03-14T04:21:09;10.20;99.90
9907;DHT22;4992;51.628;6.664;2023-03-14T04:23:34;10.20;99.90
9907;DHT22;4992;51.628;6.664;2023-03-14T04:26:00;10.20;99.90
9907;DHT22;4992;51.628;6.664;2023-03-14T04:28:25;10.20;99.90
9907;DHT22;4992;51.628;6.664;2023-03-14T04:30:51;10.20;99.90
9907;DHT22;4992;51.628;6.664;2023-03-14T04:33:16;10.30;99.90
9907;DHT22;4992;51.628;6.664;2023-03-14T04:35:43;10.20;99.90
9907;DHT22;4992;51.628;6.664;2023-03-14T04:38:09;10.20;99.90
9907;DHT22;4992;51.628;6.664;2023-03-14T04:40:40;10.20;99.90
9907;DHT22;4992;51.628;6.664;2023-03-14T04:43:06;10.20;99.90
9907;DHT22;4992;51.628;6.664;2023-03-14T04:45:32;10.10;99.90
9907;DHT22;4992;51.628;6.664;2023-03-14T04:47:58;10.10;99.90
9907;DHT22;4992;51.628;6.664;2023-03-14T04:50:23;10.10;99.90
9907;DHT22;4992;51.628;6.664;2023-03-14T04:52:49;10.10;99.90
9907;DHT22;4992;51.628;6.664;2023-03-14T04:55:15;10.10;99.90
9907;DHT22;4992;51.628;6.664;2023-03-14T04:57:40;10.00;99.90
9907;DHT22;4992;51.628;6.664;2023-03-14T05:00:07;10.00;99.90
9907;DHT22;4992;51.628;6.664;2023-03-14T05:02:33;10.00;99.90
9907;DHT22;4992;51.628;6.664;2023-03-14T05:04:59;9.90;99.90
9907;DHT22;4992;51.628;6.664;2023-03-14T05:07:24;9.90;99.90
9907;DHT22;4992;51.628;6.664;2023-03-14T05:09:50;9.70;99.90
9907;DHT22;4992;51.628;6.664;2023-03-14T05:12:16;9.70;99.90
9907;DHT22;4992;51.628;6.664;2023-03-14T05:14:41;9.60;99.90
9907;DHT22;4992;51.628;6.664;2023-03-14T05:17:07;9.60;99.90
9907;DHT22;4992;51.628;6.664;2023-03-14T05:19:32;9.50;99.90
9907;DHT22;4992;51.628;6.664;2023-03-14T05:21:58;9.50;99.90
9907;DHT22;4992;51.628;6.664;2023-03-14T05:24:23;9.40;99.90
9907;DHT22;4992;51.628;6.664;2023-03-14T05:26:49;9.30;99.90
9907;DHT22;4992;51.628;6.664;2023-03-14T05:29:15;9.20;99.90
9907;DHT22;4992;51.628;6.664;2023-03-14T05:31:40;9.20;99.90
9907;DHT22;4992;51.628;6.664;2023-03-14T05:34:06;9.10;99.90
9907;DHT22;4992;51.628;6.664;2023-03-14T05:36:31;9.10;99.90
9907;DHT22;4992;51.628;6.664;2023-03-14T05:38:57;9.00;99.90
9907;DHT22;4992;51.628;6.664;2023-03-14T05:41:22;9.00;99.90
9907;DHT22;4992;51.628;6.664;2023-03-14T05:43:48;8.90;99.90
9907;DHT22;4992;51.628;6.664;2023-03-14T05:46:14;8.90;99.90
9907;DHT22;4992;51.628;6.664;2023-03-14T05:48:39;8.90;99.90
9907;DHT22;4992;51.628;6.664;2023-03-14T05:51:05;8.80;99.90
9907;DHT22;4992;51.628;6.664;2023-03-14T05:53:31;8.80;99.90
9907;DHT22;4992;51.628;6.664;2023-03-14T05:55:56;8.80;99.90
9907;DHT22;4992;51.628;6.664;2023-03-14T05:58:22;8.80;99.90
9907;DHT22;4992;51.628;6.664;2023-03-14T06:00:49;8.80;99.90
9907;DHT22;4992;51.628;6.664;2023-03-14T06:03:15;8.90;99.90
9907;DHT22;4992;51.628;6.664;2023-03-14T06:05:40;8.90;99.90
9907;DHT22;4992;51.628;6.664;2023-03-14T06:08:06;8.90;99.90
9907;DHT22;4992;51.628;6.664;2023-03-14T06:10:32;8.90;99.90
9907;DHT22;4992;51.628;6.664;2023-03-14T06:12:58;8.90;99.90
9907;DHT22;4992;51.628;6.664;2023-03-14T06:15:23;8.90;99.90
9907;DHT22;4992;51.628;6.664;2023-03-14T06:17:49;8.90;99.90
9907;DHT22;4992;51.628;6.664;2023-03-14T06:20:14;8.90;99.90
9907;DHT22;4992;51.628;6.664;2023-03-14T06:22:40;8.90;99.90
9907;DHT22;4992;51.628;6.664;2023-03-14T06:25:07;8.90;99.90
9907;DHT22;4992;51.628;6.664;2023-03-14T06:27:33;9.00;99.90
9907;DHT22;4992;51.628;6.664;2023-03-14T06:29:59;9.00;99.90
9907;DHT22;4992;51.628;6.664;2023-03-14T06:32:25;9.00;99.90
9907;DHT22;4992;51.628;6.664;2023-03-14T06:34:50;9.00;99.90
9907;DHT22;4992;51.628;6.664;2023-03-14T06:37:16;9.00;99.90
9907;DHT22;4992;51.628;6.664;2023-03-14T06:39:42;9.00;99.90
9907;DHT22;4992;51.628;6.664;2023-03-14T06:42:09;9.00;99.90
9907;DHT22;4992;51.628;6.664;2023-03-14T06:44:35;9.10;99.90
9907;DHT22;4992;51.628;6.664;2023-03-14T06:47:00;9.10;99.90
9907;DHT22;4992;51.628;6.664;2023-03-14T06:49:26;9.10;99.90
9907;DHT22;4992;51.628;6.664;2023-03-14T06:51:52;9.20;99.90
9907;DHT22;4992;51.628;6.664;2023-03-14T06:54:17;9.20;99.90
9907;DHT22;4992;51.628;6.664;2023-03-14T06:56:43;9.30;99.90
9907;DHT22;4992;51.628;6.664;2023-03-14T06:59:09;9.30;99.90
9907;DHT22;4992;51.628;6.664;2023-03-14T07:01:34;9.30;99.90
9907;DHT22;4992;51.628;6.664;2023-03-14T07:04:03;9.30;99.90
9907;DHT22;4992;51.628;6.664;2023-03-14T07:06:29;9.40;99.90
9907;DHT22;4992;51.628;6.664;2023-03-14T07:08:55;9.50;99.90
9907;DHT22;4992;51.628;6.664;2023-03-14T07:11:21;9.50;99.90
9907;DHT22;4992;51.628;6.664;2023-03-14T07:13:47;9.50;99.90
9907;DHT22;4992;51.628;6.664;2023-03-14T07:16:12;9.60;99.90
9907;DHT22;4992;51.628;6.664;2023-03-14T07:18:38;9.60;99.90
9907;DHT22;4992;51.628;6.664;2023-03-14T07:21:08;9.60;99.90
9907;DHT22;4992;51.628;6.664;2023-03-14T07:23:37;9.70;99.90
9907;DHT22;4992;51.628;6.664;2023-03-14T07:26:03;9.70;99.90
9907;DHT22;4992;51.628;6.664;2023-03-14T07:28:29;9.70;99.90
9907;DHT22;4992;51.628;6.664;2023-03-14T07:30:55;9.80;99.90
9907;DHT22;4992;51.628;6.664;2023-03-14T07:33:20;9.80;99.90
9907;DHT22;4992;51.628;6.664;2023-03-14T07:35:47;9.80;99.90
9907;DHT22;4992;51.628;6.664;2023-03-14T07:38:14;9.80;99.90
9907;DHT22;4992;51.628;6.664;2023-03-14T07:40:39;9.80;99.90
9907;DHT22;4992;51.628;6.664;2023-03-14T07:43:06;9.80;99.90
9907;DHT22;4992;51.628;6.664;2023-03-14T07:45:31;9.90;99.90
9907;DHT22;4992;51.628;6.664;2023-03-14T07:47:57;10.00;99.90
9907;DHT22;4992;51.628;6.664;2023-03-14T07:50:26;10.00;99.90
9907;DHT22;4992;51.628;6.664;2023-03-14T07:52:53;10.10;99.90
9907;DHT22;4992;51.628;6.664;2023-03-14T07:55:18;10.10;99.90
9907;DHT22;4992;51.628;6.664;2023-03-14T07:57:44;10.10;99.90
9907;DHT22;4992;51.628;6.664;2023-03-14T08:00:10;10.20;99.90
9907;DHT22;4992;51.628;6.664;2023-03-14T08:02:36;10.30;99.90
9907;DHT22;4992;51.628;6.664;2023-03-14T08:05:03;10.30;99.90
9907;DHT22;4992;51.628;6.664;2023-03-14T08:07:29;10.40;99.90
9907;DHT22;4992;51.628;6.664;2023-03-14T08:09:55;10.40;99.90
9907;DHT22;4992;51.628;6.664;2023-03-14T08:12:20;10.50;99.90
9907;DHT22;4992;51.628;6.664;2023-03-14T08:14:46;10.50;99.90
9907;DHT22;4992;51.628;6.664;2023-03-14T08:17:12;10.50;99.90
9907;DHT22;4992;51.628;6.664;2023-03-14T08:19:37;10.50;99.90
9907;DHT22;4992;51.628;6.664;2023-03-14T08:22:03;10.50;99.90
9907;DHT22;4992;51.628;6.664;2023-03-14T08:24:29;10.60;99.90
9907;DHT22;4992;51.628;6.664;2023-03-14T08:26:55;10.60;99.90
9907;DHT22;4992;51.628;6.664;2023-03-14T08:29:21;10.70;99.90
9907;DHT22;4992;51.628;6.664;2023-03-14T08:31:46;10.70;99.90
9907;DHT22;4992;51.628;6.664;2023-03-14T08:34:14;10.70;99.90
9907;DHT22;4992;51.628;6.664;2023-03-14T08:36:40;10.70;99.90
9907;DHT22;4992;51.628;6.664;2023-03-14T08:39:06;10.60;99.90
9907;DHT22;4992;51.628;6.664;2023-03-14T08:41:33;10.60;99.90
9907;DHT22;4992;51.628;6.664;2023-03-14T08:43:58;10.60;99.90
9907;DHT22;4992;51.628;6.664;2023-03-14T08:46:24;10.60;99.90
9907;DHT22;4992;51.628;6.664;2023-03-14T08:48:49;10.60;99.90
9907;DHT22;4992;51.628;6.664;2023-03-14T08:51:15;10.50;99.90
9907;DHT22;4992;51.628;6.664;2023-03-14T08:53:41;10.50;99.90
9907;DHT22;4992;51.628;6.664;2023-03-14T08:56:07;10.50;99.90
9907;DHT22;4992;51.628;6.664;2023-03-14T08:58:35;10.10;99.90
9907;DHT22;4992;51.628;6.664;2023-03-14T09:01:07;9.90;99.90
9907;DHT22;4992;51.628;6.664;2023-03-14T09:03:33;9.70;99.90
9907;DHT22;4992;51.628;6.664;2023-03-14T09:06:03;9.50;99.90
9907;DHT22;4992;51.628;6.664;2023-03-14T09:08:29;9.30;99.90
9907;DHT22;4992;51.628;6.664;2023-03-14T09:10:54;9.20;99.90
9907;DHT22;4992;51.628;6.664;2023-03-14T09:13:20;9.00;99.90
9907;DHT22;4992;51.628;6.664;2023-03-14T09:15:51;8.90;99.90
9907;DHT22;4992;51.628;6.664;2023-03-14T09:18:16;8.80;99.90
9907;DHT22;4992;51.628;6.664;2023-03-14T09:20:42;8.70;99.90
9907;DHT22;4992;51.628;6.664;2023-03-14T09:23:07;8.60;99.90
9907;DHT22;4992;51.628;6.664;2023-03-14T09:25:33;8.60;99.90
9907;DHT22;4992;51.628;6.664;2023-03-14T09:27:58;8.50;99.90
9907;DHT22;4992;51.628;6.664;2023-03-14T09:30:24;8.50;99.90
9907;DHT22;4992;51.628;6.664;2023-03-14T09:32:49;8.50;99.90
9907;DHT22;4992;51.628;6.664;2023-03-14T09:35:15;8.50;99.90
9907;DHT22;4992;51.628;6.664;2023-03-14T09:37:41;8.50;99.90
9907;DHT22;4992;51.628;6.664;2023-03-14T09:40:10;8.50;99.90
9907;DHT22;4992;51.628;6.664;2023-03-14T09:42:37;8.50;99.90
9907;DHT22;4992;51.628;6.664;2023-03-14T09:45:14;8.50;99.90
9907;DHT22;4992;51.628;6.664;2023-03-14T09:47:43;8.50;99.90
9907;DHT22;4992;51.628;6.664;2023-03-14T09:50:19;8.50;99.90
9907;DHT22;4992;51.628;6.664;2023-03-14T09:53:06;8.60;99.90
9907;DHT22;4992;51.628;6.664;2023-03-14T09:55:32;8.60;99.90
9907;DHT22;4992;51.628;6.664;2023-03-14T09:58:02;8.60;99.90
9907;DHT22;4992;51.628;6.664;2023-03-14T10:00:30;8.50;99.90
9907;DHT22;4992;51.628;6.664;2023-03-14T10:03:12;8.30;99.90
9907;DHT22;4992;51.628;6.664;2023-03-14T10:05:41;8.20;99.90
9907;DHT22;4992;51.628;6.664;2023-03-14T10:08:11;8.10;99.90
9907;DHT22;4992;51.628;6.664;2023-03-14T10:10:37;8.00;99.90
9907;DHT22;4992;51.628;6.664;2023-03-14T10:13:20;7.90;99.90
9907;DHT22;4992;51.628;6.664;2023-03-14T10:16:04;7.80;99.90
9907;DHT22;4992;51.628;6.664;2023-03-14T10:18:33;7.70;99.90
9907;DHT22;4992;51.628;6.664;2023-03-14T10:23:33;7.60;99.90
9907;DHT22;4992;51.628;6.664;2023-03-14T10:26:15;7.50;99.90
9907;DHT22;4992;51.628;6.664;2023-03-14T10:28:47;7.40;99.90
9907;DHT22;4992;51.628;6.664;2023-03-14T10:31:14;7.40;99.90
9907;DHT22;4992;51.628;6.664;2023-03-14T10:33:40;7.40;99.90
9907;DHT22;4992;51.628;6.664;2023-03-14T10:38:41;7.50;99.90
9907;DHT22;4992;51.628;6.664;2023-03-14T10:41:17;7.40;99.90
9907;DHT22;4992;51.628;6.664;2023-03-14T10:43:43;7.50;99.90
9907;DHT22;4992;51.628;6.664;2023-03-14T10:46:14;7.50;99.90
9907;DHT22;4992;51.628;6.664;2023-03-14T10:48:40;7.50;99.90
9907;DHT22;4992;51.628;6.664;2023-03-14T10:51:18;7.50;99.90
9907;DHT22;4992;51.628;6.664;2023-03-14T10:53:49;7.50;99.90
9907;DHT22;4992;51.628;6.664;2023-03-14T10:56:22;7.60;99.90
9907;DHT22;4992;51.628;6.664;2023-03-14T10:58:50;7.90;99.90
9907;DHT22;4992;51.628;6.664;2023-03-14T11:01:39;8.10;99.90
9907;DHT22;4992;51.628;6.664;2023-03-14T11:07:16;8.40;99.90
9907;DHT22;4992;51.628;6.664;2023-03-14T11:15:27;8.30;99.90
9907;DHT22;4992;51.628;6.664;2023-03-14T11:21:08;8.10;99.90
9907;DHT22;4992;51.628;6.664;2023-03-14T11:31:28;7.90;99.90
9907;DHT22;4992;51.628;6.664;2023-03-14T11:34:10;7.90;99.90
9907;DHT22;4992;51.628;6.664;2023-03-14T11:36:51;7.80;99.90
9907;DHT22;4992;51.628;6.664;2023-03-14T11:39:19;7.90;99.90
9907;DHT22;4992;51.628;6.664;2023-03-14T11:41:57;8.00;99.90
9907;DHT22;4992;51.628;6.664;2023-03-14T11:44:34;8.00;99.90
9907;DHT22;4992;51.628;6.664;2023-03-14T11:49:58;8.20;99.90
9907;DHT22;4992;51.628;6.664;2023-03-14T11:52:47;8.50;99.90
9907;DHT22;4992;51.628;6.664;2023-03-14T11:55:20;9.10;99.90
9907;DHT22;4992;51.628;6.664;2023-03-14T11:57:51;9.30;99.90
9907;DHT22;4992;51.628;6.664;2023-03-14T12:00:21;9.30;99.90
9907;DHT22;4992;51.628;6.664;2023-03-14T12:03:14;9.10;99.90
9907;DHT22;4992;51.628;6.664;2023-03-14T12:13:55;8.20;99.90
9907;DHT22;4992;51.628;6.664;2023-03-14T12:18:50;7.80;99.90
9907;DHT22;4992;51.628;6.664;2023-03-14T12:21:17;7.70;99.90
9907;DHT22;4992;51.628;6.664;2023-03-14T12:23:44;7.60;99.90
9907;DHT22;4992;51.628;6.664;2023-03-14T12:26:14;7.60;99.90
9907;DHT22;4992;51.628;6.664;2023-03-14T12:28:52;7.70;99.90
9907;DHT22;4992;51.628;6.664;2023-03-14T12:43:04;8.40;99.90
9907;DHT22;4992;51.628;6.664;2023-03-14T12:45:30;8.40;99.90
9907;DHT22;4992;51.628;6.664;2023-03-14T12:50:35;7.80;99.90
9907;DHT22;4992;51.628;6.664;2023-03-14T12:53:19;7.60;99.90
9907;DHT22;4992;51.628;6.664;2023-03-14T12:59:26;7.40;99.90
9907;DHT22;4992;51.628;6.664;2023-03-14T13:04:43;7.60;99.90
9907;DHT22;4992;51.628;6.664;2023-03-14T13:07:30;7.70;99.90
9907;DHT22;4992;51.628;6.664;2023-03-14T13:12:38;7.90;99.90
9907;DHT22;4992;51.628;6.664;2023-03-14T13:15:24;8.00;99.90
9907;DHT22;4992;51.628;6.664;2023-03-14T13:17:54;8.20;99.90
9907;DHT22;4992;51.628;6.664;2023-03-14T13:20:34;8.40;99.90
9907;DHT22;4992;51.628;6.664;2023-03-14T13:23:00;8.50;99.90
9907;DHT22;4992;51.628;6.664;2023-03-14T13:25:30;8.80;99.90
9907;DHT22;4992;51.628;6.664;2023-03-14T13:27:57;9.30;99.90
9907;DHT22;4992;51.628;6.664;2023-03-14T13:30:26;9.60;99.90
9907;DHT22;4992;51.628;6.664;2023-03-14T13:32:53;9.90;99.90
9907;DHT22;4992;51.628;6.664;2023-03-14T13:35:27;10.10;99.90
9907;DHT22;4992;51.628;6.664;2023-03-14T13:38:19;10.30;99.90
9907;DHT22;4992;51.628;6.664;2023-03-14T13:40:46;10.50;99.90
9907;DHT22;4992;51.628;6.664;2023-03-14T13:43:25;10.50;99.90
9907;DHT22;4992;51.628;6.664;2023-03-14T13:46:04;10.40;99.90
9907;DHT22;4992;51.628;6.664;2023-03-14T13:48:32;10.80;99.90
9907;DHT22;4992;51.628;6.664;2023-03-14T13:51:09;11.30;99.90
9907;DHT22;4992;51.628;6.664;2023-03-14T13:56:10;12.40;99.90
9907;DHT22;4992;51.628;6.664;2023-03-14T13:58:38;13.40;99.90
9907;DHT22;4992;51.628;6.664;2023-03-14T14:03:58;14.10;99.90
9907;DHT22;4992;51.628;6.664;2023-03-14T14:08:54;15.20;99.90
9907;DHT22;4992;51.628;6.664;2023-03-14T14:11:54;15.80;99.90
9907;DHT22;4992;51.628;6.664;2023-03-14T14:14:28;16.20;99.90
9907;DHT22;4992;51.628;6.664;2023-03-14T14:16:56;16.10;99.90
9907;DHT22;4992;51.628;6.664;2023-03-14T14:19:26;16.40;99.90
9907;DHT22;4992;51.628;6.664;2023-03-14T14:21:53;16.90;99.90
9907;DHT22;4992;51.628;6.664;2023-03-14T14:24:22;17.50;99.90
9907;DHT22;4992;51.628;6.664;2023-03-14T14:26:53;17.40;99.90
9907;DHT22;4992;51.628;6.664;2023-03-14T14:29:31;17.60;99.90
9907;DHT22;4992;51.628;6.664;2023-03-14T14:32:11;18.20;99.90
9907;DHT22;4992;51.628;6.664;2023-03-14T14:34:59;19.30;99.90
9907;DHT22;4992;51.628;6.664;2023-03-14T14:37:29;20.40;99.90
9907;DHT22;4992;51.628;6.664;2023-03-14T14:39:59;21.10;99.90
9907;DHT22;4992;51.628;6.664;2023-03-14T14:42:30;21.20;99.90
9907;DHT22;4992;51.628;6.664;2023-03-14T14:44:57;20.90;99.90
9907;DHT22;4992;51.628;6.664;2023-03-14T14:47:25;20.20;99.80
9907;DHT22;4992;51.628;6.664;2023-03-14T14:49:53;19.20;98.40
9907;DHT22;4992;51.628;6.664;2023-03-14T14:52:27;18.70;97.00
9907;DHT22;4992;51.628;6.664;2023-03-14T14:54:59;18.20;98.10
9907;DHT22;4992;51.628;6.664;2023-03-14T14:57:27;17.30;99.00
9907;DHT22;4992;51.628;6.664;2023-03-14T15:00:00;16.70;99.90
9907;DHT22;4992;51.628;6.664;2023-03-14T15:02:40;15.70;99.90
9907;DHT22;4992;51.628;6.664;2023-03-14T15:05:24;14.70;99.90
9907;DHT22;4992;51.628;6.664;2023-03-14T15:07:50;13.80;99.90
9907;DHT22;4992;51.628;6.664;2023-03-14T15:10:19;12.80;99.90
9907;DHT22;4992;51.628;6.664;2023-03-14T15:12:45;11.90;99.90
9907;DHT22;4992;51.628;6.664;2023-03-14T15:15:11;11.40;99.90
9907;DHT22;4992;51.628;6.664;2023-03-14T15:17:38;11.00;99.90
9907;DHT22;4992;51.628;6.664;2023-03-14T15:20:05;10.80;99.90
9907;DHT22;4992;51.628;6.664;2023-03-14T15:22:31;10.70;99.90
9907;DHT22;4992;51.628;6.664;2023-03-14T15:24:56;10.60;99.90
9907;DHT22;4992;51.628;6.664;2023-03-14T15:27:22;10.50;99.90
9907;DHT22;4992;51.628;6.664;2023-03-14T15:29:48;10.30;99.90
9907;DHT22;4992;51.628;6.664;2023-03-14T15:32:16;10.20;99.90
9907;DHT22;4992;51.628;6.664;2023-03-14T15:34:42;10.10;99.90
9907;DHT22;4992;51.628;6.664;2023-03-14T15:37:12;9.90;99.90
9907;DHT22;4992;51.628;6.664;2023-03-14T15:39:39;9.90;99.90
9907;DHT22;4992;51.628;6.664;2023-03-14T15:42:05;9.70;99.90
9907;DHT22;4992;51.628;6.664;2023-03-14T15:44:31;9.60;99.90
9907;DHT22;4992;51.628;6.664;2023-03-14T15:46:56;9.50;99.90
9907;DHT22;4992;51.628;6.664;2023-03-14T15:49:22;9.40;99.90
9907;DHT22;4992;51.628;6.664;2023-03-14T15:51:47;9.20;99.90
9907;DHT22;4992;51.628;6.664;2023-03-14T15:54:14;9.20;99.90
9907;DHT22;4992;51.628;6.664;2023-03-14T15:56:39;9.10;99.90
9907;DHT22;4992;51.628;6.664;2023-03-14T15:59:05;8.90;99.90
9907;DHT22;4992;51.628;6.664;2023-03-14T16:01:31;8.80;99.90
9907;DHT22;4992;51.628;6.664;2023-03-14T16:03:56;8.70;99.90
9907;DHT22;4992;51.628;6.664;2023-03-14T16:06:22;8.50;99.90
9907;DHT22;4992;51.628;6.664;2023-03-14T16:08:48;8.50;99.90
9907;DHT22;4992;51.628;6.664;2023-03-14T16:11:15;8.40;99.90
9907;DHT22;4992;51.628;6.664;2023-03-14T16:13:43;8.30;99.90
9907;DHT22;4992;51.628;6.664;2023-03-14T16:16:09;8.20;99.90
9907;DHT22;4992;51.628;6.664;2023-03-14T16:18:37;8.20;99.90
9907;DHT22;4992;51.628;6.664;2023-03-14T16:21:05;8.10;99.90
9907;DHT22;4992;51.628;6.664;2023-03-14T16:23:32;8.00;99.90
9907;DHT22;4992;51.628;6.664;2023-03-14T16:25:58;7.90;99.90
9907;DHT22;4992;51.628;6.664;2023-03-14T16:28:24;7.80;99.90
9907;DHT22;4992;51.628;6.664;2023-03-14T16:30:51;7.70;99.90
9907;DHT22;4992;51.628;6.664;2023-03-14T16:33:16;7.70;99.90
9907;DHT22;4992;51.628;6.664;2023-03-14T16:35:56;7.60;99.90
9907;DHT22;4992;51.628;6.664;2023-03-14T16:38:23;7.50;99.90
9907;DHT22;4992;51.628;6.664;2023-03-14T16:41:00;7.40;99.90
9907;DHT22;4992;51.628;6.664;2023-03-14T16:43:26;7.40;99.90
9907;DHT22;4992;51.628;6.664;2023-03-14T16:45:52;7.30;99.90
9907;DHT22;4992;51.628;6.664;2023-03-14T16:48:18;7.20;99.90
9907;DHT22;4992;51.628;6.664;2023-03-14T16:50:45;7.20;99.90
9907;DHT22;4992;51.628;6.664;2023-03-14T16:53:10;7.10;99.90
9907;DHT22;4992;51.628;6.664;2023-03-14T16:55:40;7.10;99.90
9907;DHT22;4992;51.628;6.664;2023-03-14T16:58:06;7.00;99.90
9907;DHT22;4992;51.628;6.664;2023-03-14T17:00:32;7.00;99.90
9907;DHT22;4992;51.628;6.664;2023-03-14T17:02:58;7.00;99.90
9907;DHT22;4992;51.628;6.664;2023-03-14T17:05:23;7.00;99.90
9907;DHT22;4992;51.628;6.664;2023-03-14T17:07:49;7.00;99.90
9907;DHT22;4992;51.628;6.664;2023-03-14T17:10:15;6.90;99.90
9907;DHT22;4992;51.628;6.664;2023-03-14T17:12:42;6.90;99.90
9907;DHT22;4992;51.628;6.664;2023-03-14T17:15:08;6.80;99.90
9907;DHT22;4992;51.628;6.664;2023-03-14T17:17:34;6.70;99.90
9907;DHT22;4992;51.628;6.664;2023-03-14T17:19:59;6.70;99.90
9907;DHT22;4992;51.628;6.664;2023-03-14T17:22:25;6.60;99.90
9907;DHT22;4992;51.628;6.664;2023-03-14T17:24:51;6.60;99.90
9907;DHT22;4992;51.628;6.664;2023-03-14T17:27:16;6.60;99.90
9907;DHT22;4992;51.628;6.664;2023-03-14T17:29:45;6.50;99.90
9907;DHT22;4992;51.628;6.664;2023-03-14T17:32:11;6.50;99.90
9907;DHT22;4992;51.628;6.664;2023-03-14T17:34:37;6.50;99.90
9907;DHT22;4992;51.628;6.664;2023-03-14T17:37:02;6.40;99.90
9907;DHT22;4992;51.628;6.664;2023-03-14T17:39:28;6.40;99.90
9907;DHT22;4992;51.628;6.664;2023-03-14T17:41:53;6.40;99.90